Aquarius Ace — 3FHB8 — position and weather

sailwx.info

Track history (hours):
 
Tides and Currents Weather Stations Pressure Air Temp Water Temp Dewpoint Dewpoint Depression Visibility Wind Speed Wind Dir Waves Ship Positions

Aquarius Ace

Last reported at 2017-Nov-17 01:16 UTC. Time now 2017-Nov-18 01:11 UTC.
Position N 37°43' E 016°13'.

Length 174 m; draft 7.8 m.

Type: Cargo ship. MMSI: 354123000.

Date/timePositionNaut miles runAvg speedWind from/ knotsBaromVisibWave heightAir tempDewpointWater temp
2017-Nov-17 01:16N 37°43' E 016°13'417.1
2017-Nov-17 01:00N 37°44' E 016°08'816.7
2017-Nov-17 00:30N 37°46' E 015°58'816.5
2017-Nov-17 00:00N 37°49' E 015°48'815.7
2017-Nov-16 23:30N 37°54' E 015°40'816.8
2017-Nov-16 23:00N 38°01' E 015°34'917.3
2017-Nov-16 22:30N 38°09' E 015°35'816.4
2017-Nov-16 22:00N 38°17' E 015°40'816.1
2017-Nov-16 21:30N 38°23' E 015°35'917.7
2017-Nov-16 21:00N 38°30' E 015°27'917.4
2017-Nov-16 20:30N 38°36' E 015°19'917.5
2017-Nov-16 20:00N 38°42' E 015°11'917.3
2017-Nov-16 19:29N 38°48' E 015°03'817.2
2017-Nov-16 19:00N 38°54' E 014°55'32915.8
2017-Nov-15 22:13N 42°57' E 010°01'316.6
2017-Nov-15 22:00N 43°01' E 010°02'816.7
2017-Nov-15 21:30N 43°09' E 010°04'816.3
2017-Nov-15 21:00N 43°17' E 010°07'816.1
2017-Nov-15 20:30N 43°25' E 010°09'714.0
2017-Nov-15 20:00N 43°31' E 010°13'5 8.0
2017-Nov-15 19:26N 43°34' E 010°18'1 2.2
2017-Nov-15 19:00N 43°35' E 010°18'0 0.0
2017-Nov-15 18:30N 43°35' E 010°18'0 0.0
2017-Nov-15 17:57N 43°35' E 010°18'0 0.0
2017-Nov-15 17:30N 43°35' E 010°18'0 0.0
2017-Nov-15 17:00N 43°35' E 010°18'0 0.0
2017-Nov-15 16:30N 43°35' E 010°18'0 0.0
2017-Nov-15 16:00N 43°35' E 010°18'0 0.0
2017-Nov-15 15:30N 43°35' E 010°18'0 0.0
2017-Nov-15 15:00N 43°35' E 010°18'0 0.0
2017-Nov-15 14:30N 43°35' E 010°18'0 0.0
2017-Nov-15 14:00N 43°35' E 010°18'0 0.0
2017-Nov-15 13:31N 43°35' E 010°18'0 0.0
2017-Nov-15 13:00N 43°35' E 010°18'0 0.0
2017-Nov-15 12:31N 43°35' E 010°18'0 0.0
2017-Nov-15 12:01N 43°35' E 010°18'0 0.0
2017-Nov-15 11:30N 43°35' E 010°18'0 0.0
2017-Nov-15 11:00N 43°35' E 010°18'0 0.0
2017-Nov-15 10:30N 43°35' E 010°18'0 0.0
2017-Nov-15 10:00N 43°35' E 010°18'0 0.0
2017-Nov-15 09:30N 43°35' E 010°18'0 0.0
2017-Nov-15 09:00N 43°35' E 010°18'0 0.0
2017-Nov-15 08:30N 43°35' E 010°18'0 0.0
2017-Nov-15 08:00N 43°35' E 010°18'0 0.0
2017-Nov-15 07:30N 43°35' E 010°18'0 0.0
2017-Nov-15 07:01N 43°35' E 010°18'0 0.0
2017-Nov-15 06:30N 43°35' E 010°18'0 0.0
2017-Nov-15 06:00N 43°35' E 010°18'0 0.0
2017-Nov-15 05:30N 43°35' E 010°18'0 0.0
2017-Nov-15 05:00N 43°35' E 010°18'0 0.0
2017-Nov-15 04:30N 43°35' E 010°18'0 0.0
2017-Nov-15 04:00N 43°35' E 010°18'0 0.0
2017-Nov-15 03:28N 43°35' E 010°18'0 0.0
2017-Nov-15 03:00N 43°35' E 010°18'0 0.0
2017-Nov-15 02:30N 43°35' E 010°18'0 0.0
2017-Nov-15 02:00N 43°35' E 010°18'0 0.0
2017-Nov-15 01:30N 43°35' E 010°18'0 0.0
2017-Nov-15 01:00N 43°35' E 010°18'0 0.0
2017-Nov-15 00:30N 43°35' E 010°18'0 0.0
2017-Nov-15 00:00N 43°35' E 010°18'0 0.0
2017-Nov-14 23:30N 43°35' E 010°18'0 0.0
2017-Nov-14 23:00N 43°35' E 010°18'1 1.4
2017-Nov-14 22:30N 43°34' E 010°18'4 7.5
2017-Nov-14 22:01N 43°31' E 010°15'3 5.7
2017-Nov-14 21:30N 43°29' E 010°13'2 4.5
2017-Nov-14 21:01N 43°28' E 010°10'815.2
2017-Nov-14 20:31N 43°22' E 010°03'715.0
2017-Nov-14 20:01N 43°17' E 009°55'815.1
2017-Nov-14 19:30N 43°16' E 009°45'815.2
2017-Nov-14 19:01N 43°14' E 009°35'814.9
2017-Nov-14 18:30N 43°12' E 009°25'715.0
2017-Nov-14 18:00N 43°11' E 009°15'815.0
2017-Nov-14 17:30N 43°09' E 009°04'8212.9
2017-Nov-14 11:10N 42°49' E 007°16'212.8
2017-Nov-14 10:59N 42°49' E 007°13'242 6.0
2017-Nov-12 18:20N 41°12' E 002°15'1 3.8
2017-Nov-12 17:58N 41°13' E 002°14'1 0.8
2017-Nov-12 17:14N 41°13' E 002°14'0 0.7
2017-Nov-12 16:49N 41°12' E 002°14'1 0.5
2017-Nov-12 15:51N 41°12' E 002°14'0 0.5
2017-Nov-12 15:24N 41°12' E 002°14'1 0.3
2017-Nov-12 12:56N 41°12' E 002°13'2 0.2
2017-Nov-11 23:55N 41°10' E 002°11'3 1.5
2017-Nov-11 22:16N 41°11' E 002°14'0 1.5
2017-Nov-11 21:58N 41°12' E 002°14'1 0.5
2017-Nov-11 20:31N 41°12' E 002°15'0 0.6
2017-Nov-11 20:28N 41°12' E 002°15'9 1.7
2017-Nov-11 15:12N 41°06' E 002°06'316.1
2017-Nov-11 15:00N 41°04' E 002°03'1016.9
2017-Nov-11 14:25N 40°56' E 001°57'21216.2
2017-Nov-11 01:24N 37°51' W 000°16'716.2
2017-Nov-11 01:00N 37°45' W 000°21'816.1
2017-Nov-11 00:30N 37°39' W 000°26'815.9
2017-Nov-11 00:00N 37°32' W 000°32'816.0
2017-Nov-10 23:30N 37°27' W 000°40'815.7
2017-Nov-10 23:00N 37°22' W 000°47'915.7
2017-Nov-10 22:28N 37°16' W 000°55'21915.5
2017-Nov-10 08:19N 36°00' W 005°12'516.7
2017-Nov-10 08:00N 35°59' W 005°18'816.8
2017-Nov-10 07:30N 35°57' W 005°28'25113.1
2017-Nov-09 12:23N 38°09' W 009°56'616.0
2017-Nov-09 11:59N 38°15' W 009°58'815.8
2017-Nov-09 11:30N 38°22' W 010°00'815.8
2017-Nov-09 11:00N 38°30' W 010°03'815.4
2017-Nov-09 10:30N 38°38' W 010°04'815.2
2017-Nov-09 10:01N 38°45' W 010°06'815.2
2017-Nov-09 09:30N 38°53' W 010°07'815.1
2017-Nov-09 09:00N 39°00' W 010°07'815.5
2017-Nov-09 08:30N 39°08' W 010°06'815.1
2017-Nov-09 08:00N 39°15' W 010°06'815.3
2017-Nov-09 07:30N 39°23' W 010°06'66914.7
2017-Nov-07 10:00N 49°37' W 003°52'914.4
2017-Nov-07 09:21N 49°41' W 003°39'514.0
2017-Nov-07 09:00N 49°44' W 003°33'713.7
2017-Nov-07 08:30N 49°47' W 003°23'713.7
2017-Nov-07 08:00N 49°51' W 003°14'713.3
2017-Nov-07 07:30N 49°54' W 003°05'612.8
2017-Nov-07 07:00N 49°57' W 002°57'713.3
2017-Nov-07 06:30N 49°59' W 002°47'714.1
2017-Nov-07 06:00N 50°01' W 002°36'2216.4
2017-Nov-07 04:40N 50°07' W 002°03'317.8
2017-Nov-07 04:30N 50°08' W 001°59'918.3
2017-Nov-07 04:01N 50°10' W 001°45'918.5
2017-Nov-07 03:30N 50°12' W 001°31'918.3
2017-Nov-07 03:00N 50°15' W 001°18'  
Track history (hours):
 
Tides and Currents Weather Stations Pressure Air Temp Water Temp Dewpoint Dewpoint Depression Visibility Wind Speed Wind Dir Waves Ship Positions

Aquarius Ace

Last reported at 2017-Nov-17 01:16 UTC. Time now 2017-Nov-18 01:11 UTC.
Position N 37°43' E 016°13'.

Length 174 m; draft 7.8 m.

Type: Cargo ship. MMSI: 354123000.

Date/timePositionNaut miles runAvg speedWind from/ knotsBaromVisibWave heightAir tempDewpointWater temp
2017-Nov-17 01:16N 37°43' E 016°13'417.1
2017-Nov-17 01:00N 37°44' E 016°08'816.7
2017-Nov-17 00:30N 37°46' E 015°58'816.5
2017-Nov-17 00:00N 37°49' E 015°48'815.7
2017-Nov-16 23:30N 37°54' E 015°40'816.8
2017-Nov-16 23:00N 38°01' E 015°34'917.3
2017-Nov-16 22:30N 38°09' E 015°35'816.4
2017-Nov-16 22:00N 38°17' E 015°40'816.1
2017-Nov-16 21:30N 38°23' E 015°35'917.7
2017-Nov-16 21:00N 38°30' E 015°27'917.4
2017-Nov-16 20:30N 38°36' E 015°19'917.5
2017-Nov-16 20:00N 38°42' E 015°11'917.3
2017-Nov-16 19:29N 38°48' E 015°03'817.2
2017-Nov-16 19:00N 38°54' E 014°55'32915.8
2017-Nov-15 22:13N 42°57' E 010°01'316.6
2017-Nov-15 22:00N 43°01' E 010°02'816.7
2017-Nov-15 21:30N 43°09' E 010°04'816.3
2017-Nov-15 21:00N 43°17' E 010°07'816.1
2017-Nov-15 20:30N 43°25' E 010°09'714.0
2017-Nov-15 20:00N 43°31' E 010°13'5 8.0
2017-Nov-15 19:26N 43°34' E 010°18'1 2.2
2017-Nov-15 19:00N 43°35' E 010°18'0 0.0
2017-Nov-15 18:30N 43°35' E 010°18'0 0.0
2017-Nov-15 17:57N 43°35' E 010°18'0 0.0
2017-Nov-15 17:30N 43°35' E 010°18'0 0.0
2017-Nov-15 17:00N 43°35' E 010°18'0 0.0
2017-Nov-15 16:30N 43°35' E 010°18'0 0.0
2017-Nov-15 16:00N 43°35' E 010°18'0 0.0
2017-Nov-15 15:30N 43°35' E 010°18'0 0.0
2017-Nov-15 15:00N 43°35' E 010°18'0 0.0
2017-Nov-15 14:30N 43°35' E 010°18'0 0.0
2017-Nov-15 14:00N 43°35' E 010°18'0 0.0
2017-Nov-15 13:31N 43°35' E 010°18'0 0.0
2017-Nov-15 13:00N 43°35' E 010°18'0 0.0
2017-Nov-15 12:31N 43°35' E 010°18'0 0.0
2017-Nov-15 12:01N 43°35' E 010°18'0 0.0
2017-Nov-15 11:30N 43°35' E 010°18'0 0.0
2017-Nov-15 11:00N 43°35' E 010°18'0 0.0
2017-Nov-15 10:30N 43°35' E 010°18'0 0.0
2017-Nov-15 10:00N 43°35' E 010°18'0 0.0
2017-Nov-15 09:30N 43°35' E 010°18'0 0.0
2017-Nov-15 09:00N 43°35' E 010°18'0 0.0
2017-Nov-15 08:30N 43°35' E 010°18'0 0.0
2017-Nov-15 08:00N 43°35' E 010°18'0 0.0
2017-Nov-15 07:30N 43°35' E 010°18'0 0.0
2017-Nov-15 07:01N 43°35' E 010°18'0 0.0
2017-Nov-15 06:30N 43°35' E 010°18'0 0.0
2017-Nov-15 06:00N 43°35' E 010°18'0 0.0
2017-Nov-15 05:30N 43°35' E 010°18'0 0.0
2017-Nov-15 05:00N 43°35' E 010°18'0 0.0
2017-Nov-15 04:30N 43°35' E 010°18'0 0.0
2017-Nov-15 04:00N 43°35' E 010°18'0 0.0
2017-Nov-15 03:28N 43°35' E 010°18'0 0.0
2017-Nov-15 03:00N 43°35' E 010°18'0 0.0
2017-Nov-15 02:30N 43°35' E 010°18'0 0.0
2017-Nov-15 02:00N 43°35' E 010°18'0 0.0
2017-Nov-15 01:30N 43°35' E 010°18'0 0.0
2017-Nov-15 01:00N 43°35' E 010°18'0 0.0
2017-Nov-15 00:30N 43°35' E 010°18'0 0.0
2017-Nov-15 00:00N 43°35' E 010°18'0 0.0
2017-Nov-14 23:30N 43°35' E 010°18'0 0.0
2017-Nov-14 23:00N 43°35' E 010°18'1 1.4
2017-Nov-14 22:30N 43°34' E 010°18'4 7.5
2017-Nov-14 22:01N 43°31' E 010°15'3 5.7
2017-Nov-14 21:30N 43°29' E 010°13'2 4.5
2017-Nov-14 21:01N 43°28' E 010°10'815.2
2017-Nov-14 20:31N 43°22' E 010°03'715.0
2017-Nov-14 20:01N 43°17' E 009°55'815.1
2017-Nov-14 19:30N 43°16' E 009°45'815.2
2017-Nov-14 19:01N 43°14' E 009°35'814.9
2017-Nov-14 18:30N 43°12' E 009°25'715.0
2017-Nov-14 18:00N 43°11' E 009°15'815.0
2017-Nov-14 17:30N 43°09' E 009°04'8212.9
2017-Nov-14 11:10N 42°49' E 007°16'212.8
2017-Nov-14 10:59N 42°49' E 007°13'242 6.0
2017-Nov-12 18:20N 41°12' E 002°15'1 3.8
2017-Nov-12 17:58N 41°13' E 002°14'1 0.8
2017-Nov-12 17:14N 41°13' E 002°14'0 0.7
2017-Nov-12 16:49N 41°12' E 002°14'1 0.5
2017-Nov-12 15:51N 41°12' E 002°14'0 0.5
2017-Nov-12 15:24N 41°12' E 002°14'1 0.3
2017-Nov-12 12:56N 41°12' E 002°13'2 0.2
2017-Nov-11 23:55N 41°10' E 002°11'3 1.5
2017-Nov-11 22:16N 41°11' E 002°14'0 1.5
2017-Nov-11 21:58N 41°12' E 002°14'1 0.5
2017-Nov-11 20:31N 41°12' E 002°15'0 0.6
2017-Nov-11 20:28N 41°12' E 002°15'9 1.7
2017-Nov-11 15:12N 41°06' E 002°06'316.1
2017-Nov-11 15:00N 41°04' E 002°03'1016.9
2017-Nov-11 14:25N 40°56' E 001°57'21216.2
2017-Nov-11 01:24N 37°51' W 000°16'716.2
2017-Nov-11 01:00N 37°45' W 000°21'816.1
2017-Nov-11 00:30N 37°39' W 000°26'815.9
2017-Nov-11 00:00N 37°32' W 000°32'816.0
2017-Nov-10 23:30N 37°27' W 000°40'815.7
2017-Nov-10 23:00N 37°22' W 000°47'915.7
2017-Nov-10 22:28N 37°16' W 000°55'21915.5
2017-Nov-10 08:19N 36°00' W 005°12'516.7
2017-Nov-10 08:00N 35°59' W 005°18'816.8
2017-Nov-10 07:30N 35°57' W 005°28'25113.1
2017-Nov-09 12:23N 38°09' W 009°56'616.0
2017-Nov-09 11:59N 38°15' W 009°58'815.8
2017-Nov-09 11:30N 38°22' W 010°00'815.8
2017-Nov-09 11:00N 38°30' W 010°03'815.4
2017-Nov-09 10:30N 38°38' W 010°04'815.2
2017-Nov-09 10:01N 38°45' W 010°06'815.2
2017-Nov-09 09:30N 38°53' W 010°07'815.1
2017-Nov-09 09:00N 39°00' W 010°07'815.5
2017-Nov-09 08:30N 39°08' W 010°06'815.1
2017-Nov-09 08:00N 39°15' W 010°06'815.3
2017-Nov-09 07:30N 39°23' W 010°06'66914.7
2017-Nov-07 10:00N 49°37' W 003°52'914.4
2017-Nov-07 09:21N 49°41' W 003°39'514.0
2017-Nov-07 09:00N 49°44' W 003°33'713.7
2017-Nov-07 08:30N 49°47' W 003°23'713.7
2017-Nov-07 08:00N 49°51' W 003°14'713.3
2017-Nov-07 07:30N 49°54' W 003°05'612.8
2017-Nov-07 07:00N 49°57' W 002°57'713.3
2017-Nov-07 06:30N 49°59' W 002°47'714.1
2017-Nov-07 06:00N 50°01' W 002°36'2216.4
2017-Nov-07 04:40N 50°07' W 002°03'317.8
2017-Nov-07 04:30N 50°08' W 001°59'918.3
2017-Nov-07 04:01N 50°10' W 001°45'918.5
2017-Nov-07 03:30N 50°12' W 001°31'918.3
2017-Nov-07 03:00N 50°15' W 001°18'  

Dump ship's entire track history